createdAt,value
2019-05-07T00:01:54.823Z,22.43
2019-05-07T00:04:23.348Z,21.70
2019-05-07T00:06:53.476Z,26.00
2019-05-07T00:09:23.728Z,21.77
2019-05-07T00:11:53.834Z,20.10
2019-05-07T00:14:25.510Z,21.83
2019-05-07T00:16:55.649Z,20.63
2019-05-07T00:19:25.749Z,21.10
2019-05-07T00:21:55.862Z,20.43
2019-05-07T00:24:26.112Z,22.10
2019-05-07T00:26:56.263Z,21.53
2019-05-07T00:29:26.345Z,24.30
2019-05-07T00:31:56.598Z,25.73
2019-05-07T00:34:32.866Z,20.60
2019-05-07T00:37:08.823Z,21.67
2019-05-07T00:40:02.753Z,19.50
2019-05-07T00:42:39.115Z,23.63
2019-05-07T00:45:20.287Z,21.37
2019-05-07T00:47:48.077Z,21.47
2019-05-07T00:50:24.067Z,25.17
2019-05-07T00:52:54.214Z,21.17
2019-05-07T00:55:24.262Z,22.87
2019-05-07T00:57:54.700Z,19.90
2019-05-07T01:00:24.834Z,21.40
2019-05-07T01:02:55.079Z,23.13
2019-05-07T01:05:25.297Z,26.70
2019-05-07T01:07:55.843Z,25.97
2019-05-07T01:10:26.034Z,19.60
2019-05-07T01:12:59.061Z,21.93
2019-05-07T01:15:32.163Z,28.73
2019-05-07T01:18:02.836Z,30.63
2019-05-07T01:20:33.112Z,22.30
2019-05-07T01:23:03.304Z,21.07
2019-05-07T01:25:33.547Z,29.57
2019-05-07T01:28:03.630Z,24.27
2019-05-07T01:30:33.838Z,21.10
2019-05-07T01:33:12.231Z,25.00
2019-05-07T01:36:02.327Z,24.00
2019-05-07T01:38:33.138Z,25.17
2019-05-07T01:41:03.460Z,27.93
2019-05-07T01:43:33.650Z,23.73
2019-05-07T01:46:03.851Z,25.30
2019-05-07T01:48:33.949Z,25.90
2019-05-07T01:51:04.258Z,29.10
2019-05-07T01:53:34.479Z,30.63
2019-05-07T01:56:05.785Z,23.53
2019-05-07T01:58:35.947Z,25.30
2019-05-07T02:01:06.098Z,24.90
2019-05-07T02:03:54.074Z,24.63
2019-05-07T02:06:28.957Z,24.30
2019-05-07T02:09:15.084Z,25.63
2019-05-07T02:11:46.501Z,28.50
2019-05-07T02:14:16.637Z,22.47
2019-05-07T02:16:46.837Z,26.37
2019-05-07T02:19:16.929Z,24.30
2019-05-07T02:21:47.026Z,24.17
2019-05-07T02:24:17.121Z,29.20
2019-05-07T02:26:47.331Z,22.57
2019-05-07T02:29:17.377Z,27.10
2019-05-07T02:31:47.530Z,23.73
2019-05-07T02:34:17.762Z,24.90
2019-05-07T02:36:47.977Z,22.63
2019-05-07T02:39:24.301Z,26.17
2019-05-07T02:41:54.596Z,23.07
2019-05-07T02:44:24.840Z,21.37
2019-05-07T02:47:03.986Z,25.07
2019-05-07T02:49:45.945Z,24.50
2019-05-07T02:52:23.007Z,25.80
2019-05-07T02:55:23.276Z,25.83
2019-05-07T02:57:54.217Z,21.37
2019-05-07T03:00:24.618Z,23.03
2019-05-07T03:02:54.866Z,21.83
2019-05-07T03:05:25.009Z,22.43
2019-05-07T03:07:56.204Z,22.67
2019-05-07T03:10:26.346Z,23.70
2019-05-07T03:12:56.582Z,28.57
2019-05-07T03:15:26.806Z,24.37
2019-05-07T03:17:57.022Z,23.10
2019-05-07T03:20:33.544Z,21.07
2019-05-07T03:23:04.409Z,21.43
2019-05-07T03:25:54.153Z,23.83
2019-05-07T03:28:25.556Z,28.47
2019-05-07T03:31:06.172Z,25.07
2019-05-07T03:33:48.034Z,26.23
2019-05-07T03:36:19.924Z,23.07
2019-05-07T03:38:50.104Z,29.00
2019-05-07T03:41:22.672Z,35.23
2019-05-07T03:43:53.105Z,31.57
2019-05-07T03:46:23.733Z,35.87
2019-05-07T03:48:53.938Z,30.03
2019-05-07T03:51:24.222Z,25.93
2019-05-07T03:53:54.359Z,25.27
2019-05-07T03:56:24.477Z,34.23
2019-05-07T03:58:54.606Z,41.07
2019-05-07T04:01:24.816Z,33.13
2019-05-07T04:03:54.998Z,29.60
2019-05-07T04:06:25.125Z,32.57
2019-05-07T04:08:55.303Z,33.47
2019-05-07T04:11:25.434Z,34.90
2019-05-07T04:13:55.585Z,32.87
2019-05-07T04:16:25.727Z,30.20
2019-05-07T04:18:55.946Z,33.90
2019-05-07T04:21:26.082Z,26.13
2019-05-07T04:24:13.732Z,23.90
2019-05-07T04:26:47.170Z,25.37
2019-05-07T04:29:17.647Z,27.53
2019-05-07T04:31:47.796Z,25.10
2019-05-07T04:34:26.103Z,22.87
2019-05-07T04:36:56.339Z,22.77
2019-05-07T04:39:26.419Z,19.10
2019-05-07T04:41:56.974Z,20.93
2019-05-07T04:44:27.155Z,22.27
2019-05-07T04:46:57.432Z,20.17
2019-05-07T04:49:27.792Z,21.03
2019-05-07T04:52:11.313Z,16.80
2019-05-07T04:54:43.468Z,20.87
2019-05-07T04:57:27.213Z,22.33
2019-05-07T04:59:58.474Z,17.03
2019-05-07T05:02:46.107Z,16.70
2019-05-07T05:05:17.267Z,18.93
2019-05-07T05:07:47.407Z,19.37
2019-05-07T05:10:17.594Z,18.23
2019-05-07T05:12:47.760Z,18.77
2019-05-07T05:15:18.541Z,16.73
2019-05-07T05:17:53.132Z,19.07
2019-05-07T05:20:24.646Z,20.23
2019-05-07T05:23:07.199Z,18.70
2019-05-07T05:25:40.054Z,18.40
2019-05-07T05:28:12.416Z,14.97
2019-05-07T05:30:45.723Z,22.07
2019-05-07T05:33:15.773Z,14.73
2019-05-07T05:35:46.058Z,19.47
2019-05-07T05:38:16.102Z,15.17
2019-05-07T05:40:46.399Z,17.77
2019-05-07T05:43:26.489Z,18.87
2019-05-07T05:45:58.703Z,22.07
2019-05-07T05:48:28.794Z,18.97
2019-05-07T05:51:08.323Z,18.63
2019-05-07T05:53:44.314Z,18.93
2019-05-07T05:56:23.600Z,23.33
2019-05-07T05:59:12.679Z,19.87
2019-05-07T06:02:03.374Z,18.60
2019-05-07T06:04:43.354Z,20.67
2019-05-07T06:07:27.920Z,18.13
2019-05-07T06:10:28.957Z,21.53
2019-05-07T06:13:06.385Z,16.30
2019-05-07T06:16:00.129Z,21.23
2019-05-07T06:18:52.560Z,16.40
2019-05-07T06:21:41.886Z,20.00
2019-05-07T06:24:14.002Z,17.73
2019-05-07T06:26:44.301Z,19.63
2019-05-07T06:29:14.458Z,16.97
2019-05-07T06:31:46.467Z,16.73
2019-05-07T06:34:16.688Z,17.47
2019-05-07T06:36:47.631Z,15.27
2019-05-07T06:39:22.806Z,19.50
2019-05-07T06:42:12.510Z,15.53
2019-05-07T06:44:42.808Z,11.80
2019-05-07T06:47:14.107Z,10.90
2019-05-07T06:49:44.277Z,10.83
2019-05-07T06:52:14.467Z,16.27
2019-05-07T06:54:44.596Z,14.07
2019-05-07T06:57:14.801Z,13.10
2019-05-07T06:59:50.269Z,14.67
2019-05-07T07:02:42.254Z,20.33
2019-05-07T07:05:30.186Z,15.37
2019-05-07T07:08:05.005Z,13.07
2019-05-07T07:10:54.118Z,13.13
2019-05-07T07:13:25.059Z,13.77
2019-05-07T07:15:56.746Z,12.43
2019-05-07T07:18:26.897Z,10.93
2019-05-07T07:20:58.091Z,14.73
2019-05-07T07:23:28.302Z,10.57
2019-05-07T07:25:58.757Z,14.83
2019-05-07T07:28:29.006Z,12.53
2019-05-07T07:31:36.378Z,12.10
2019-05-07T07:34:08.390Z,9.20
2019-05-07T07:37:13.514Z,10.47
2019-05-07T07:39:43.091Z,15.17
2019-05-07T07:42:14.506Z,14.43
2019-05-07T07:44:44.658Z,12.50
2019-05-07T07:47:14.802Z,10.20
2019-05-07T07:49:45.097Z,11.43
2019-05-07T07:52:15.303Z,11.83
2019-05-07T07:54:45.456Z,11.67
2019-05-07T07:57:33.229Z,12.73
2019-05-07T08:00:11.895Z,7.20
2019-05-07T08:02:48.391Z,8.40
2019-05-07T08:05:18.557Z,12.07
2019-05-07T08:07:48.831Z,8.20
2019-05-07T08:10:19.342Z,12.50
2019-05-07T08:12:49.626Z,8.90
2019-05-07T08:15:21.853Z,10.10
2019-05-07T08:17:52.168Z,10.93
2019-05-07T08:20:22.911Z,9.93
2019-05-07T08:22:53.434Z,8.67
2019-05-07T08:25:42.726Z,11.27
2019-05-07T08:28:12.939Z,15.23
2019-05-07T08:30:44.768Z,12.87
2019-05-07T08:33:19.693Z,9.73
2019-05-07T08:36:07.939Z,8.30
2019-05-07T08:38:52.780Z,8.70
2019-05-07T08:41:25.086Z,9.20
2019-05-07T08:44:11.556Z,11.80
2019-05-07T08:46:53.103Z,9.93
2019-05-07T08:49:35.628Z,5.37
2019-05-07T08:52:03.404Z,8.33
2019-05-07T08:54:33.688Z,8.93
2019-05-07T08:57:04.034Z,9.63
2019-05-07T08:59:35.247Z,8.40
2019-05-07T09:02:05.925Z,12.40
2019-05-07T09:04:36.782Z,9.73
2019-05-07T09:07:06.926Z,9.03
2019-05-07T09:09:37.066Z,9.10
2019-05-07T09:12:07.196Z,6.97
2019-05-07T09:14:37.779Z,10.17
2019-05-07T09:17:07.930Z,14.03
2019-05-07T09:19:48.304Z,9.30
2019-05-07T09:22:12.512Z,7.93
2019-05-07T09:24:42.611Z,9.67
2019-05-07T09:27:32.709Z,7.33
2019-05-07T09:30:32.662Z,15.13
2019-05-07T09:33:22.691Z,7.60
2019-05-07T09:35:54.354Z,12.87
2019-05-07T09:38:24.506Z,6.37
2019-05-07T09:40:57.031Z,7.57
2019-05-07T09:43:26.732Z,9.07
2019-05-07T09:45:56.935Z,6.80
2019-05-07T09:48:27.094Z,7.50
2019-05-07T09:50:57.233Z,5.60
2019-05-07T09:53:27.529Z,5.30
2019-05-07T09:55:57.675Z,4.87
2019-05-07T09:58:36.761Z,9.53
2019-05-07T10:01:01.935Z,5.73
2019-05-07T10:03:32.446Z,6.40
2019-05-07T10:06:02.855Z,7.37
2019-05-07T10:08:33.167Z,10.87
2019-05-07T10:11:04.991Z,7.50
2019-05-07T10:13:39.595Z,5.20
2019-05-07T10:16:09.811Z,5.93
2019-05-07T10:18:40.029Z,7.17
2019-05-07T10:21:10.373Z,7.63
2019-05-07T10:23:41.694Z,5.50
2019-05-07T10:26:12.256Z,5.50
2019-05-07T10:28:42.603Z,5.37
2019-05-07T10:31:12.965Z,8.80
2019-05-07T10:33:43.131Z,9.13
2019-05-07T10:36:13.268Z,7.70
2019-05-07T10:38:43.562Z,6.67
2019-05-07T10:41:14.762Z,7.33
2019-05-07T10:43:44.954Z,11.17
2019-05-07T10:46:34.197Z,10.63
2019-05-07T10:49:17.206Z,6.17
2019-05-07T10:51:47.386Z,4.43
2019-05-07T10:54:17.610Z,8.83
2019-05-07T10:56:47.745Z,8.73
2019-05-07T10:59:17.913Z,11.63
2019-05-07T11:02:02.311Z,5.07
2019-05-07T11:04:40.355Z,5.53
2019-05-07T11:07:04.242Z,8.50
2019-05-07T11:09:34.393Z,9.10
2019-05-07T11:12:04.599Z,8.77
2019-05-07T11:14:34.725Z,7.33
2019-05-07T11:17:26.458Z,10.30
2019-05-07T11:19:56.634Z,6.13
2019-05-07T11:22:26.764Z,5.87
2019-05-07T11:24:57.139Z,5.17
2019-05-07T11:27:27.230Z,9.00
2019-05-07T11:29:57.422Z,8.17
2019-05-07T11:32:27.570Z,5.23
2019-05-07T11:34:57.863Z,10.33
2019-05-07T11:37:28.045Z,7.33
2019-05-07T11:39:58.193Z,12.40
2019-05-07T11:43:02.736Z,7.93
2019-05-07T11:45:39.457Z,8.80
2019-05-07T11:48:13.145Z,8.23
2019-05-07T11:51:00.442Z,14.33
2019-05-07T11:53:22.089Z,8.60
2019-05-07T11:55:52.462Z,6.47
2019-05-07T11:58:22.598Z,6.30
2019-05-07T12:01:05.766Z,5.57
2019-05-07T12:03:43.126Z,7.03
2019-05-07T12:06:13.302Z,7.73
2019-05-07T12:08:51.319Z,8.57
2019-05-07T12:11:15.338Z,6.90
2019-05-07T12:13:45.546Z,7.50
2019-05-07T12:16:15.720Z,7.87
2019-05-07T12:18:45.854Z,13.20
2019-05-07T12:21:20.230Z,5.53
2019-05-07T12:23:47.936Z,9.30
2019-05-07T12:26:18.170Z,9.27
2019-05-07T12:28:48.752Z,8.07
2019-05-07T12:31:47.229Z,11.10
2019-05-07T12:34:28.514Z,9.47
2019-05-07T12:36:58.777Z,5.30
2019-05-07T12:39:29.076Z,6.67
2019-05-07T12:41:59.342Z,5.57
2019-05-07T12:44:29.507Z,16.73
2019-05-07T12:47:01.605Z,8.70
2019-05-07T12:49:32.466Z,7.50
2019-05-07T12:52:29.126Z,8.00
2019-05-07T12:55:24.234Z,6.60
2019-05-07T12:57:54.415Z,7.10
2019-05-07T13:00:43.807Z,7.97
2019-05-07T13:03:29.543Z,7.07
2019-05-07T13:05:59.920Z,6.70
2019-05-07T13:08:30.111Z,6.83
2019-05-07T13:11:02.798Z,5.63
2019-05-07T13:13:32.428Z,6.17
2019-05-07T13:16:03.048Z,6.70
2019-05-07T13:18:33.447Z,9.40
2019-05-07T13:21:03.598Z,5.03
2019-05-07T13:23:33.766Z,8.47
2019-05-07T13:26:03.926Z,5.37
2019-05-07T13:28:34.144Z,11.90
2019-05-07T13:31:04.485Z,15.53
2019-05-07T13:33:35.486Z,7.63
2019-05-07T13:36:05.872Z,4.50
2019-05-07T13:39:05.574Z,5.87
2019-05-07T13:41:53.966Z,11.30
2019-05-07T13:44:53.663Z,7.43
2019-05-07T13:47:29.647Z,8.80
2019-05-07T13:50:02.444Z,14.60
2019-05-07T13:52:34.082Z,8.50
2019-05-07T13:55:04.869Z,9.20
2019-05-07T13:57:35.098Z,15.73
2019-05-07T14:00:08.867Z,8.87
2019-05-07T14:02:39.865Z,7.03
2019-05-07T14:05:14.021Z,8.87
2019-05-07T14:07:43.749Z,7.50
2019-05-07T14:10:14.245Z,9.17
2019-05-07T14:12:44.402Z,5.40
2019-05-07T14:15:14.709Z,10.77
2019-05-07T14:17:44.871Z,7.90
2019-05-07T14:20:16.401Z,6.47
2019-05-07T14:22:46.563Z,8.70
2019-05-07T14:25:21.911Z,6.10
2019-05-07T14:27:52.647Z,8.83
2019-05-07T14:30:24.534Z,6.40
2019-05-07T14:33:06.099Z,5.37
2019-05-07T14:35:55.587Z,5.70
2019-05-07T14:38:44.731Z,6.13
2019-05-07T14:41:15.015Z,5.43
2019-05-07T14:44:02.818Z,5.33
2019-05-07T14:46:44.551Z,7.90
2019-05-07T14:49:06.093Z,5.70
2019-05-07T14:51:36.234Z,6.33
2019-05-07T14:54:06.403Z,8.00
2019-05-07T14:56:36.818Z,8.33
2019-05-07T14:59:07.070Z,7.80
2019-05-07T15:01:37.205Z,11.70
2019-05-07T15:04:07.556Z,7.67
2019-05-07T15:06:37.797Z,5.93
2019-05-07T15:09:08.312Z,7.90
2019-05-07T15:11:38.594Z,5.67
2019-05-07T15:14:08.765Z,8.17
2019-05-07T15:16:38.988Z,7.37
2019-05-07T15:19:09.265Z,5.00
2019-05-07T15:21:39.561Z,9.10
2019-05-07T15:24:09.795Z,9.43
2019-05-07T15:26:41.998Z,7.57
2019-05-07T15:29:14.638Z,8.30
2019-05-07T15:32:03.877Z,12.33
2019-05-07T15:34:34.051Z,5.37
2019-05-07T15:37:04.422Z,7.87
2019-05-07T15:39:34.690Z,4.80
2019-05-07T15:42:04.962Z,6.40
2019-05-07T15:44:35.123Z,8.50
2019-05-07T15:47:11.704Z,6.83
2019-05-07T15:49:41.930Z,7.37
2019-05-07T15:52:18.352Z,10.77
2019-05-07T15:54:48.515Z,8.00
2019-05-07T15:57:23.918Z,17.13
2019-05-07T16:00:05.214Z,7.70
2019-05-07T16:02:38.699Z,12.23
2019-05-07T16:05:12.247Z,9.30
2019-05-07T16:07:43.708Z,6.33
2019-05-07T16:10:15.292Z,7.20
2019-05-07T16:12:45.814Z,7.83
2019-05-07T16:15:15.984Z,6.00
2019-05-07T16:17:52.239Z,5.43
2019-05-07T16:20:23.498Z,6.70
2019-05-07T16:22:56.990Z,8.97
2019-05-07T16:25:27.146Z,11.87
2019-05-07T16:27:57.354Z,13.07
2019-05-07T16:30:27.614Z,12.30
2019-05-07T16:32:57.772Z,9.03
2019-05-07T16:35:27.846Z,9.43
2019-05-07T16:37:58.023Z,8.20
2019-05-07T16:40:28.173Z,6.07
2019-05-07T16:42:58.341Z,16.13
2019-05-07T16:45:28.642Z,8.27
2019-05-07T16:48:00.552Z,6.60
2019-05-07T16:50:32.615Z,6.80
2019-05-07T16:53:04.155Z,6.60
2019-05-07T16:55:37.307Z,7.23
2019-05-07T16:58:38.716Z,7.30
2019-05-07T17:01:10.173Z,8.63
2019-05-07T17:03:44.947Z,7.97
2019-05-07T17:06:15.102Z,7.43
2019-05-07T17:08:55.919Z,9.40
2019-05-07T17:11:26.114Z,6.33
2019-05-07T17:13:56.403Z,7.80
2019-05-07T17:16:26.672Z,7.97
2019-05-07T17:18:56.950Z,6.53
2019-05-07T17:21:27.006Z,6.33
2019-05-07T17:23:57.238Z,7.07
2019-05-07T17:26:27.435Z,7.97
2019-05-07T17:28:57.753Z,9.57
2019-05-07T17:31:27.898Z,7.73
2019-05-07T17:33:58.099Z,14.53
2019-05-07T17:36:28.386Z,11.23
2019-05-07T17:38:58.536Z,8.97
2019-05-07T17:41:28.796Z,8.57
2019-05-07T17:43:58.947Z,9.57
2019-05-07T17:46:29.098Z,7.00
2019-05-07T17:48:59.290Z,11.47
2019-05-07T17:51:48.418Z,11.27
2019-05-07T17:54:18.717Z,15.13
2019-05-07T17:56:48.798Z,13.97
2019-05-07T17:59:18.854Z,14.47
2019-05-07T18:02:01.798Z,14.63
2019-05-07T18:04:46.693Z,17.47
2019-05-07T18:07:05.546Z,18.57
2019-05-07T18:09:35.867Z,17.80
2019-05-07T18:12:07.158Z,19.33
2019-05-07T18:14:37.463Z,16.17
2019-05-07T18:17:35.470Z,17.07
2019-05-07T18:20:06.029Z,18.03
2019-05-07T18:22:36.234Z,22.90
2019-05-07T18:25:06.502Z,22.97
2019-05-07T18:27:36.718Z,16.93
2019-05-07T18:30:07.398Z,17.27
2019-05-07T18:32:44.086Z,17.00
2019-05-07T18:35:14.346Z,18.73
2019-05-07T18:38:02.669Z,16.67
2019-05-07T18:40:32.932Z,15.63
2019-05-07T18:43:03.571Z,22.83
2019-05-07T18:45:33.814Z,18.00
2019-05-07T18:48:03.979Z,21.57
2019-05-07T18:50:34.226Z,24.43
2019-05-07T18:53:04.631Z,22.73
2019-05-07T18:55:34.873Z,22.83
2019-05-07T18:58:05.117Z,33.77
2019-05-07T19:00:38.742Z,28.17
2019-05-07T19:03:08.916Z,31.20
2019-05-07T19:05:39.070Z,29.53
2019-05-07T19:08:12.356Z,28.63
2019-05-07T19:10:42.894Z,32.07
2019-05-07T19:13:13.378Z,25.83
2019-05-07T19:15:43.521Z,28.53
2019-05-07T19:18:13.754Z,32.40
2019-05-07T19:20:44.163Z,27.33
2019-05-07T19:23:14.427Z,36.23
2019-05-07T19:25:44.774Z,34.77
2019-05-07T19:28:15.189Z,45.17
2019-05-07T19:30:45.614Z,63.07
2019-05-07T19:33:15.852Z,62.30
2019-05-07T19:35:46.082Z,64.17
2019-05-07T19:38:16.227Z,68.30
2019-05-07T19:40:46.636Z,74.90
2019-05-07T19:43:16.877Z,83.73
2019-05-07T19:45:47.103Z,90.23
2019-05-07T19:48:17.361Z,99.27
2019-05-07T19:50:47.558Z,98.40
2019-05-07T19:53:20.471Z,102.43
2019-05-07T19:56:13.728Z,83.73
2019-05-07T19:58:43.892Z,70.27
2019-05-07T20:01:15.839Z,64.47
2019-05-07T20:03:46.046Z,57.93
2019-05-07T20:06:17.253Z,63.80
2019-05-07T20:08:47.300Z,68.73
2019-05-07T20:11:24.888Z,69.63
2019-05-07T20:13:55.058Z,70.27
2019-05-07T20:16:25.327Z,79.93
2019-05-07T20:18:55.582Z,122.37
2019-05-07T20:21:25.888Z,118.80
2019-05-07T20:23:56.137Z,102.73
2019-05-07T20:26:26.300Z,55.17
2019-05-07T20:28:56.595Z,43.47
2019-05-07T20:31:26.874Z,50.77
2019-05-07T20:33:57.169Z,59.67
2019-05-07T20:36:27.547Z,54.63
2019-05-07T20:38:57.838Z,69.87
2019-05-07T20:41:32.971Z,80.80
2019-05-07T20:44:03.586Z,78.90
2019-05-07T20:46:34.138Z,71.83
2019-05-07T20:49:04.255Z,78.33
2019-05-07T20:51:34.480Z,70.20
2019-05-07T20:54:35.652Z,70.37
2019-05-07T20:57:13.279Z,60.60
2019-05-07T20:59:43.545Z,46.30
2019-05-07T21:02:13.712Z,52.07
2019-05-07T21:04:43.978Z,55.73
2019-05-07T21:07:14.129Z,77.63
2019-05-07T21:09:44.362Z,66.00
2019-05-07T21:12:14.512Z,52.40
2019-05-07T21:14:44.596Z,118.07
2019-05-07T21:17:14.770Z,85.77
2019-05-07T21:19:44.887Z,162.07
2019-05-07T21:22:15.053Z,142.50
2019-05-07T21:24:46.987Z,99.87
2019-05-07T21:27:17.108Z,81.33
2019-05-07T21:29:47.241Z,67.70
2019-05-07T21:32:17.405Z,55.20
2019-05-07T21:34:47.545Z,55.47
2019-05-07T21:37:17.703Z,77.00
2019-05-07T21:39:47.893Z,64.27
2019-05-07T21:42:17.966Z,66.73
2019-05-07T21:44:48.130Z,61.17
2019-05-07T21:47:18.372Z,51.37
2019-05-07T21:49:48.522Z,49.47
2019-05-07T21:52:18.787Z,50.30
2019-05-07T21:54:58.524Z,48.23
2019-05-07T21:57:54.421Z,47.23
2019-05-07T22:00:42.506Z,49.03
2019-05-07T22:03:16.515Z,67.07
2019-05-07T22:05:46.654Z,56.97
2019-05-07T22:08:17.897Z,64.47
2019-05-07T22:10:49.232Z,54.73
2019-05-07T22:13:19.389Z,44.03
2019-05-07T22:15:49.501Z,38.10
2019-05-07T22:18:19.667Z,38.23
2019-05-07T22:20:52.094Z,39.63
2019-05-07T22:23:24.516Z,46.00
2019-05-07T22:25:53.580Z,42.67
2019-05-07T22:28:25.474Z,39.30
2019-05-07T22:31:20.774Z,40.77
2019-05-07T22:34:01.999Z,41.43
2019-05-07T22:36:32.661Z,37.80
2019-05-07T22:39:07.497Z,40.17
2019-05-07T22:41:39.467Z,33.53
2019-05-07T22:44:12.002Z,30.77
2019-05-07T22:46:42.285Z,38.63
2019-05-07T22:49:12.574Z,40.97
2019-05-07T22:51:42.750Z,36.67
2019-05-07T22:54:13.083Z,32.63
2019-05-07T22:57:13.985Z,34.40
2019-05-07T22:59:43.303Z,32.30
2019-05-07T23:02:13.536Z,32.03
2019-05-07T23:04:43.666Z,35.07
2019-05-07T23:07:13.966Z,37.30
2019-05-07T23:09:44.859Z,32.23
2019-05-07T23:12:15.390Z,41.07
2019-05-07T23:14:45.542Z,40.30
2019-05-07T23:17:15.613Z,33.37
2019-05-07T23:19:45.759Z,36.07
2019-05-07T23:22:15.958Z,30.57
2019-05-07T23:24:46.110Z,33.97
2019-05-07T23:27:16.250Z,33.90
2019-05-07T23:29:46.345Z,40.47
2019-05-07T23:32:16.417Z,34.17
2019-05-07T23:34:46.481Z,35.67
2019-05-07T23:37:16.648Z,39.97
2019-05-07T23:39:48.442Z,35.03
2019-05-07T23:42:22.521Z,79.93
2019-05-07T23:44:52.641Z,107.27
2019-05-07T23:47:22.826Z,160.27
2019-05-07T23:49:54.035Z,181.03
2019-05-07T23:52:24.274Z,149.97
2019-05-07T23:54:54.377Z,128.03
2019-05-07T23:57:24.434Z,87.17
2019-05-07T23:59:54.512Z,78.50
